sensor_id;sensor_type;location;lat;lon;timestamp;pressure;altitude;pressure_sealevel;temperature;humidity
36234;BME280;43467;50.890;5.982;2024-02-26T00:02:14;98239.81;;;8.81;72.76
36234;BME280;43467;50.890;5.982;2024-02-26T00:04:40;98246.25;;;8.90;72.66
36234;BME280;43467;50.890;5.982;2024-02-26T00:07:05;98246.78;;;8.82;72.83
36234;BME280;43467;50.890;5.982;2024-02-26T00:09:30;98243.69;;;8.88;72.85
36234;BME280;43467;50.890;5.982;2024-02-26T00:11:56;98238.56;;;8.87;72.53
36234;BME280;43467;50.890;5.982;2024-02-26T00:14:23;98237.47;;;8.90;72.92
36234;BME280;43467;50.890;5.982;2024-02-26T00:16:48;98233.16;;;8.88;72.76
36234;BME280;43467;50.890;5.982;2024-02-26T00:19:13;98233.59;;;8.82;73.14
36234;BME280;43467;50.890;5.982;2024-02-26T00:21:42;98230.97;;;8.82;73.40
36234;BME280;43467;50.890;5.982;2024-02-26T00:24:08;98233.06;;;8.77;73.59
36234;BME280;43467;50.890;5.982;2024-02-26T00:26:34;98240.81;;;8.68;73.35
36234;BME280;43467;50.890;5.982;2024-02-26T00:28:59;98237.41;;;8.66;74.17
36234;BME280;43467;50.890;5.982;2024-02-26T00:31:25;98231.06;;;8.68;74.51
36234;BME280;43467;50.890;5.982;2024-02-26T00:33:50;98230.75;;;8.60;74.78
36234;BME280;43467;50.890;5.982;2024-02-26T00:36:16;98227.50;;;8.57;74.94
36234;BME280;43467;50.890;5.982;2024-02-26T00:38:41;98224.97;;;8.55;75.00
36234;BME280;43467;50.890;5.982;2024-02-26T00:41:08;98228.47;;;8.56;75.56
36234;BME280;43467;50.890;5.982;2024-02-26T00:43:33;98219.56;;;8.57;75.36
36234;BME280;43467;50.890;5.982;2024-02-26T00:45:59;98222.66;;;8.51;75.97
36234;BME280;43467;50.890;5.982;2024-02-26T00:48:24;98208.53;;;8.52;76.09
36234;BME280;43467;50.890;5.982;2024-02-26T00:50:51;98208.63;;;8.50;76.00
36234;BME280;43467;50.890;5.982;2024-02-26T00:53:16;98202.81;;;8.45;76.37
36234;BME280;43467;50.890;5.982;2024-02-26T00:55:42;98199.56;;;8.42;76.67
36234;BME280;43467;50.890;5.982;2024-02-26T00:58:07;98204.28;;;8.36;76.87
36234;BME280;43467;50.890;5.982;2024-02-26T01:00:33;98204.06;;;8.39;77.62
36234;BME280;43467;50.890;5.982;2024-02-26T01:02:58;98215.59;;;8.38;77.86
36234;BME280;43467;50.890;5.982;2024-02-26T01:05:25;98209.47;;;8.38;77.57
36234;BME280;43467;50.890;5.982;2024-02-26T01:07:50;98215.16;;;8.32;77.56
36234;BME280;43467;50.890;5.982;2024-02-26T01:10:16;98211.78;;;8.43;77.51
36234;BME280;43467;50.890;5.982;2024-02-26T01:12:41;98199.44;;;8.43;77.89
36234;BME280;43467;50.890;5.982;2024-02-26T01:15:07;98213.38;;;8.45;78.18
36234;BME280;43467;50.890;5.982;2024-02-26T01:17:33;98216.75;;;8.47;77.88
36234;BME280;43467;50.890;5.982;2024-02-26T01:19:58;98200.94;;;8.47;77.91
36234;BME280;43467;50.890;5.982;2024-02-26T01:22:24;98194.59;;;8.50;77.87
36234;BME280;43467;50.890;5.982;2024-02-26T01:24:50;98207.56;;;8.53;77.99
36234;BME280;43467;50.890;5.982;2024-02-26T01:27:15;98211.66;;;8.57;77.39
36234;BME280;43467;50.890;5.982;2024-02-26T01:29:41;98207.22;;;8.57;77.86
36234;BME280;43467;50.890;5.982;2024-02-26T01:32:07;98206.69;;;8.65;77.45
36234;BME280;43467;50.890;5.982;2024-02-26T01:34:32;98207.44;;;8.67;77.48
36234;BME280;43467;50.890;5.982;2024-02-26T01:36:58;98200.38;;;8.67;77.61
36234;BME280;43467;50.890;5.982;2024-02-26T01:39:23;98194.13;;;8.68;77.87
36234;BME280;43467;50.890;5.982;2024-02-26T01:41:48;98199.53;;;8.67;77.83
36234;BME280;43467;50.890;5.982;2024-02-26T01:44:14;98206.50;;;8.68;77.52
36234;BME280;43467;50.890;5.982;2024-02-26T01:46:40;98197.94;;;8.64;77.86
36234;BME280;43467;50.890;5.982;2024-02-26T01:49:06;98205.53;;;8.69;77.71
36234;BME280;43467;50.890;5.982;2024-02-26T01:51:35;98206.50;;;8.68;78.17
36234;BME280;43467;50.890;5.982;2024-02-26T01:54:02;98197.94;;;8.64;77.92
36234;BME280;43467;50.890;5.982;2024-02-26T01:56:29;98200.56;;;8.64;78.05
36234;BME280;43467;50.890;5.982;2024-02-26T01:58:57;98201.66;;;8.62;78.31
36234;BME280;43467;50.890;5.982;2024-02-26T02:01:25;98198.06;;;8.63;79.01
36234;BME280;43467;50.890;5.982;2024-02-26T02:03:52;98201.97;;;8.57;79.29
36234;BME280;43467;50.890;5.982;2024-02-26T02:06:18;98193.75;;;8.49;79.67
36234;BME280;43467;50.890;5.982;2024-02-26T02:08:44;98195.97;;;8.43;79.63
36234;BME280;43467;50.890;5.982;2024-02-26T02:11:10;98195.34;;;8.39;79.66
36234;BME280;43467;50.890;5.982;2024-02-26T02:13:37;98199.88;;;8.37;80.67
36234;BME280;43467;50.890;5.982;2024-02-26T02:16:03;98192.25;;;8.32;80.76
36234;BME280;43467;50.890;5.982;2024-02-26T02:18:29;98187.75;;;8.34;80.57
36234;BME280;43467;50.890;5.982;2024-02-26T02:20:54;98193.34;;;8.30;81.23
36234;BME280;43467;50.890;5.982;2024-02-26T02:23:21;98185.09;;;8.34;81.15
36234;BME280;43467;50.890;5.982;2024-02-26T02:25:46;98191.00;;;8.38;81.13
36234;BME280;43467;50.890;5.982;2024-02-26T02:28:12;98196.38;;;8.36;81.23
36234;BME280;43467;50.890;5.982;2024-02-26T02:30:39;98196.69;;;8.32;81.70
36234;BME280;43467;50.890;5.982;2024-02-26T02:33:05;98198.03;;;8.25;81.42
36234;BME280;43467;50.890;5.982;2024-02-26T02:35:31;98196.34;;;8.24;81.97
36234;BME280;43467;50.890;5.982;2024-02-26T02:37:57;98193.41;;;8.28;82.08
36234;BME280;43467;50.890;5.982;2024-02-26T02:40:22;98196.97;;;8.27;81.45
36234;BME280;43467;50.890;5.982;2024-02-26T02:42:48;98191.81;;;8.26;81.80
36234;BME280;43467;50.890;5.982;2024-02-26T02:45:13;98196.91;;;8.29;81.45
36234;BME280;43467;50.890;5.982;2024-02-26T02:47:39;98190.03;;;8.26;81.63
36234;BME280;43467;50.890;5.982;2024-02-26T02:50:04;98179.06;;;8.20;81.67
36234;BME280;43467;50.890;5.982;2024-02-26T02:52:30;98192.53;;;8.28;81.79
36234;BME280;43467;50.890;5.982;2024-02-26T02:54:56;98197.75;;;8.29;81.95
36234;BME280;43467;50.890;5.982;2024-02-26T02:57:22;98192.84;;;8.23;82.07
36234;BME280;43467;50.890;5.982;2024-02-26T02:59:47;98192.53;;;8.28;82.10
36234;BME280;43467;50.890;5.982;2024-02-26T03:02:13;98190.03;;;8.26;82.51
36234;BME280;43467;50.890;5.982;2024-02-26T03:04:38;98191.81;;;8.26;82.78
36234;BME280;43467;50.890;5.982;2024-02-26T03:07:03;98191.19;;;8.22;82.68
36234;BME280;43467;50.890;5.982;2024-02-26T03:09:29;98198.13;;;8.23;83.18
36234;BME280;43467;50.890;5.982;2024-02-26T03:11:54;98186.66;;;8.24;83.07
36234;BME280;43467;50.890;5.982;2024-02-26T03:14:19;98195.84;;;8.19;83.47
36234;BME280;43467;50.890;5.982;2024-02-26T03:16:45;98193.94;;;8.21;83.36
36234;BME280;43467;50.890;5.982;2024-02-26T03:19:10;98198.13;;;8.23;83.37
36234;BME280;43467;50.890;5.982;2024-02-26T03:21:36;98191.38;;;8.19;83.49
36234;BME280;43467;50.890;5.982;2024-02-26T03:24:01;98194.16;;;8.18;83.56
36234;BME280;43467;50.890;5.982;2024-02-26T03:26:27;98190.13;;;8.12;83.62
36234;BME280;43467;50.890;5.982;2024-02-26T03:28:52;98194.97;;;8.06;83.75
36234;BME280;43467;50.890;5.982;2024-02-26T03:31:18;98184.44;;;8.06;84.02
36234;BME280;43467;50.890;5.982;2024-02-26T03:33:44;98190.44;;;8.08;84.24
36234;BME280;43467;50.890;5.982;2024-02-26T03:36:09;98183.69;;;8.04;84.38
36234;BME280;43467;50.890;5.982;2024-02-26T03:38:34;98186.53;;;8.01;84.32
36234;BME280;43467;50.890;5.982;2024-02-26T03:41:00;98189.06;;;8.02;84.27
36234;BME280;43467;50.890;5.982;2024-02-26T03:43:25;98189.94;;;8.03;84.44
36234;BME280;43467;50.890;5.982;2024-02-26T03:45:51;98195.19;;;8.03;84.30
36234;BME280;43467;50.890;5.982;2024-02-26T03:48:16;98195.19;;;8.03;84.80
36234;BME280;43467;50.890;5.982;2024-02-26T03:50:42;98203.41;;;7.98;84.50
36234;BME280;43467;50.890;5.982;2024-02-26T03:53:07;98199.16;;;7.95;84.81
36234;BME280;43467;50.890;5.982;2024-02-26T03:55:34;98188.84;;;7.92;84.92
36234;BME280;43467;50.890;5.982;2024-02-26T03:58:00;98191.56;;;7.91;84.60
36234;BME280;43467;50.890;5.982;2024-02-26T04:00:25;98195.16;;;7.90;84.53
36234;BME280;43467;50.890;5.982;2024-02-26T04:02:51;98201.72;;;7.97;84.72
36234;BME280;43467;50.890;5.982;2024-02-26T04:05:16;98194.66;;;7.98;84.61
36234;BME280;43467;50.890;5.982;2024-02-26T04:07:42;98195.16;;;7.90;85.04
36234;BME280;43467;50.890;5.982;2024-02-26T04:10:11;98199.16;;;7.95;85.00
36234;BME280;43467;50.890;5.982;2024-02-26T04:12:41;98195.59;;;7.97;85.21
36234;BME280;43467;50.890;5.982;2024-02-26T04:15:10;98204.97;;;8.01;84.64
36234;BME280;43467;50.890;5.982;2024-02-26T04:17:36;98211.94;;;8.02;84.74
36234;BME280;43467;50.890;5.982;2024-02-26T04:20:02;98207.41;;;8.04;84.73
36234;BME280;43467;50.890;5.982;2024-02-26T04:22:28;98208.25;;;8.04;84.92
36234;BME280;43467;50.890;5.982;2024-02-26T04:24:53;98213.63;;;8.03;84.79
36234;BME280;43467;50.890;5.982;2024-02-26T04:27:18;98212.16;;;7.99;85.04
36234;BME280;43467;50.890;5.982;2024-02-26T04:29:44;98214.47;;;8.03;85.10
36234;BME280;43467;50.890;5.982;2024-02-26T04:32:09;98210.25;;;8.01;85.05
36234;BME280;43467;50.890;5.982;2024-02-26T04:34:35;98219.84;;;8.02;85.13
36234;BME280;43467;50.890;5.982;2024-02-26T04:37:00;98204.25;;;7.99;85.57
36234;BME280;43467;50.890;5.982;2024-02-26T04:39:26;98202.78;;;7.94;85.65
36234;BME280;43467;50.890;5.982;2024-02-26T04:41:51;98202.22;;;7.89;85.50
36234;BME280;43467;50.890;5.982;2024-02-26T04:44:17;98204.88;;;7.89;86.00
36234;BME280;43467;50.890;5.982;2024-02-26T04:46:42;98209.28;;;7.89;85.71
36234;BME280;43467;50.890;5.982;2024-02-26T04:49:07;98204.63;;;7.80;85.34
36234;BME280;43467;50.890;5.982;2024-02-26T04:51:33;98211.28;;;7.85;85.75
36234;BME280;43467;50.890;5.982;2024-02-26T04:53:58;98214.94;;;7.83;85.69
36234;BME280;43467;50.890;5.982;2024-02-26T04:56:24;98215.78;;;7.83;85.94
36234;BME280;43467;50.890;5.982;2024-02-26T04:58:50;98211.97;;;7.75;86.16
36234;BME280;43467;50.890;5.982;2024-02-26T05:01:15;98219.59;;;7.79;86.20
36234;BME280;43467;50.890;5.982;2024-02-26T05:03:42;98216.75;;;7.82;86.26
36234;BME280;43467;50.890;5.982;2024-02-26T05:06:08;98226.34;;;7.83;85.88
36234;BME280;43467;50.890;5.982;2024-02-26T05:08:34;98224.47;;;7.85;85.87
36234;BME280;43467;50.890;5.982;2024-02-26T05:11:01;98220.13;;;7.84;85.84
36234;BME280;43467;50.890;5.982;2024-02-26T05:13:28;98224.47;;;7.85;85.87
36234;BME280;43467;50.890;5.982;2024-02-26T05:15:53;98220.88;;;7.86;85.77
36234;BME280;43467;50.890;5.982;2024-02-26T05:18:19;98227.63;;;7.90;86.16
36234;BME280;43467;50.890;5.982;2024-02-26T05:20:44;98226.97;;;7.87;85.19
36234;BME280;43467;50.890;5.982;2024-02-26T05:23:09;98237.72;;;7.84;85.42
36234;BME280;43467;50.890;5.982;2024-02-26T05:25:35;98240.34;;;7.84;85.88
36234;BME280;43467;50.890;5.982;2024-02-26T05:28:00;98235.84;;;7.86;85.67
36234;BME280;43467;50.890;5.982;2024-02-26T05:30:26;98242.06;;;7.85;85.95
36234;BME280;43467;50.890;5.982;2024-02-26T05:32:54;98234.34;;;7.82;86.30
36234;BME280;43467;50.890;5.982;2024-02-26T05:35:20;98234.66;;;7.77;86.63
36234;BME280;43467;50.890;5.982;2024-02-26T05:37:45;98240.88;;;7.76;87.03
36234;BME280;43467;50.890;5.982;2024-02-26T05:40:11;98237.88;;;7.68;87.41
36234;BME280;43467;50.890;5.982;2024-02-26T05:42:36;98248.63;;;7.65;87.37
36234;BME280;43467;50.890;5.982;2024-02-26T05:45:02;98238.09;;;7.65;87.31
36234;BME280;43467;50.890;5.982;2024-02-26T05:47:34;98247.78;;;7.65;87.37
36234;BME280;43467;50.890;5.982;2024-02-26T05:50:00;98248.38;;;7.56;87.72
36234;BME280;43467;50.890;5.982;2024-02-26T05:52:26;98250.28;;;7.54;87.84
36234;BME280;43467;50.890;5.982;2024-02-26T05:54:53;98259.84;;;7.55;88.32
36234;BME280;43467;50.890;5.982;2024-02-26T05:57:18;98261.00;;;7.51;88.21
36234;BME280;43467;50.890;5.982;2024-02-26T05:59:44;98261.75;;;7.53;88.57
36234;BME280;43467;50.890;5.982;2024-02-26T06:02:09;98264.25;;;7.54;88.15
36234;BME280;43467;50.890;5.982;2024-02-26T06:04:35;98278.28;;;7.55;88.61
36234;BME280;43467;50.890;5.982;2024-02-26T06:07:00;98271.72;;;7.47;88.71
36234;BME280;43467;50.890;5.982;2024-02-26T06:09:25;98268.25;;;7.47;88.69
36234;BME280;43467;50.890;5.982;2024-02-26T06:11:51;98270.03;;;7.46;88.65
36234;BME280;43467;50.890;5.982;2024-02-26T06:14:16;98277.00;;;7.47;88.78
36234;BME280;43467;50.890;5.982;2024-02-26T06:19:18;98277.94;;;7.46;88.67
36234;BME280;43467;50.890;5.982;2024-02-26T06:21:44;98287.53;;;7.47;88.58
36234;BME280;43467;50.890;5.982;2024-02-26T06:24:09;98289.09;;;7.50;88.90
36234;BME280;43467;50.890;5.982;2024-02-26T06:26:34;98290.44;;;7.43;88.80
36234;BME280;43467;50.890;5.982;2024-02-26T06:29:00;98298.47;;;7.41;89.06
36234;BME280;43467;50.890;5.982;2024-02-26T06:31:25;98291.88;;;7.34;89.29
36234;BME280;43467;50.890;5.982;2024-02-26T06:33:53;98308.72;;;7.32;89.55
36234;BME280;43467;50.890;5.982;2024-02-26T06:36:19;98315.13;;;7.28;89.91
36234;BME280;43467;50.890;5.982;2024-02-26T06:38:45;98318.41;;;7.31;89.85
36234;BME280;43467;50.890;5.982;2024-02-26T06:41:10;98319.91;;;7.35;89.59
36234;BME280;43467;50.890;5.982;2024-02-26T06:43:36;98332.97;;;7.37;89.51
36234;BME280;43467;50.890;5.982;2024-02-26T06:46:02;98321.81;;;7.33;89.29
36234;BME280;43467;50.890;5.982;2024-02-26T06:48:27;98335.91;;;7.32;89.46
36234;BME280;43467;50.890;5.982;2024-02-26T06:50:53;98332.13;;;7.36;88.80
36234;BME280;43467;50.890;5.982;2024-02-26T06:53:19;98334.84;;;7.35;89.14
36234;BME280;43467;50.890;5.982;2024-02-26T06:55:44;98340.09;;;7.35;89.25
36234;BME280;43467;50.890;5.982;2024-02-26T06:58:10;98350.84;;;7.32;89.50
36234;BME280;43467;50.890;5.982;2024-02-26T07:00:35;98344.63;;;7.33;89.71
36234;BME280;43467;50.890;5.982;2024-02-26T07:03:00;98337.47;;;7.35;89.75
36234;BME280;43467;50.890;5.982;2024-02-26T07:05:27;98352.63;;;7.31;89.83
36234;BME280;43467;50.890;5.982;2024-02-26T07:07:52;98351.78;;;7.31;90.37
36234;BME280;43467;50.890;5.982;2024-02-26T07:10:18;98356.03;;;7.33;90.32
36234;BME280;43467;50.890;5.982;2024-02-26T07:12:43;98359.47;;;7.34;90.71
36234;BME280;43467;50.890;5.982;2024-02-26T07:15:09;98364.09;;;7.30;90.88
36234;BME280;43467;50.890;5.982;2024-02-26T07:17:35;98367.38;;;7.34;91.30
36234;BME280;43467;50.890;5.982;2024-02-26T07:20:01;98370.13;;;7.32;91.27
36234;BME280;43467;50.890;5.982;2024-02-26T07:22:29;98379.72;;;7.33;91.29
36234;BME280;43467;50.890;5.982;2024-02-26T07:24:55;98384.88;;;7.35;91.13
36234;BME280;43467;50.890;5.982;2024-02-26T07:27:20;98386.66;;;7.34;91.15
36234;BME280;43467;50.890;5.982;2024-02-26T07:29:46;98392.97;;;7.32;91.23
36234;BME280;43467;50.890;5.982;2024-02-26T07:32:12;98385.78;;;7.34;91.28
36234;BME280;43467;50.890;5.982;2024-02-26T07:34:37;98388.53;;;7.32;91.53
36234;BME280;43467;50.890;5.982;2024-02-26T07:37:07;98401.22;;;7.40;91.58
36234;BME280;43467;50.890;5.982;2024-02-26T07:39:32;98402.16;;;7.39;91.61
36234;BME280;43467;50.890;5.982;2024-02-26T07:41:57;98404.50;;;7.43;91.83
36234;BME280;43467;50.890;5.982;2024-02-26T07:44:23;98405.56;;;7.41;91.54
36234;BME280;43467;50.890;5.982;2024-02-26T07:46:48;98404.06;;;7.37;91.97
36234;BME280;43467;50.890;5.982;2024-02-26T07:49:14;98406.84;;;7.34;91.95
36234;BME280;43467;50.890;5.982;2024-02-26T07:51:39;98404.78;;;7.39;92.18
36234;BME280;43467;50.890;5.982;2024-02-26T07:54:04;98411.09;;;7.36;92.10
36234;BME280;43467;50.890;5.982;2024-02-26T07:56:30;98414.47;;;7.38;92.23
36234;BME280;43467;50.890;5.982;2024-02-26T07:58:55;98417.38;;;7.34;92.11
36234;BME280;43467;50.890;5.982;2024-02-26T08:01:21;98424.34;;;7.35;92.17
36234;BME280;43467;50.890;5.982;2024-02-26T08:03:46;98433.94;;;7.36;92.17
36234;BME280;43467;50.890;5.982;2024-02-26T08:06:11;98434.03;;;7.34;91.89
36234;BME280;43467;50.890;5.982;2024-02-26T08:08:37;98433.66;;;7.40;91.98
36234;BME280;43467;50.890;5.982;2024-02-26T08:11:03;98443.28;;;7.41;91.49
36234;BME280;43467;50.890;5.982;2024-02-26T08:13:28;98437.44;;;7.36;91.42
36234;BME280;43467;50.890;5.982;2024-02-26T08:15:54;98434.22;;;7.31;91.36
36234;BME280;43467;50.890;5.982;2024-02-26T08:18:20;98439.31;;;7.34;91.48
36234;BME280;43467;50.890;5.982;2024-02-26T08:20:45;98447.19;;;7.34;91.40
36234;BME280;43467;50.890;5.982;2024-02-26T08:23:11;98447.13;;;7.36;91.55
36234;BME280;43467;50.890;5.982;2024-02-26T08:25:37;98455.00;;;7.36;91.51
36234;BME280;43467;50.890;5.982;2024-02-26T08:28:02;98451.53;;;7.35;91.62
36234;BME280;43467;50.890;5.982;2024-02-26T08:30:28;98460.56;;;7.31;91.60
36234;BME280;43467;50.890;5.982;2024-02-26T08:32:53;98461.59;;;7.29;91.66
36234;BME280;43467;50.890;5.982;2024-02-26T08:35:19;98460.56;;;7.31;91.51
36234;BME280;43467;50.890;5.982;2024-02-26T08:37:45;98467.72;;;7.29;91.67
36234;BME280;43467;50.890;5.982;2024-02-26T08:40:12;98464.03;;;7.32;91.87
36234;BME280;43467;50.890;5.982;2024-02-26T08:42:37;98475.50;;;7.31;91.84
36234;BME280;43467;50.890;5.982;2024-02-26T08:45:03;98476.16;;;7.34;91.84
36234;BME280;43467;50.890;5.982;2024-02-26T08:47:28;98473.44;;;7.36;91.58
36234;BME280;43467;50.890;5.982;2024-02-26T08:49:54;98477.50;;;7.41;91.55
36234;BME280;43467;50.890;5.982;2024-02-26T08:52:20;98475.25;;;7.50;91.35
36234;BME280;43467;50.890;5.982;2024-02-26T08:54:47;98487.16;;;7.55;91.08
36234;BME280;43467;50.890;5.982;2024-02-26T08:57:12;98488.94;;;7.55;90.84
36234;BME280;43467;50.890;5.982;2024-02-26T08:59:38;98487.66;;;7.62;90.78
36234;BME280;43467;50.890;5.982;2024-02-26T09:02:03;98490.75;;;7.68;90.65
36234;BME280;43467;50.890;5.982;2024-02-26T09:04:28;98496.75;;;7.70;90.02
36234;BME280;43467;50.890;5.982;2024-02-26T09:06:54;98500.91;;;7.74;90.10
36234;BME280;43467;50.890;5.982;2024-02-26T09:09:20;98504.66;;;7.70;89.69
36234;BME280;43467;50.890;5.982;2024-02-26T09:11:47;98506.84;;;7.78;89.80
36234;BME280;43467;50.890;5.982;2024-02-26T09:14:13;98507.38;;;7.83;89.97
36234;BME280;43467;50.890;5.982;2024-02-26T09:16:39;98510.59;;;7.88;90.15
36234;BME280;43467;50.890;5.982;2024-02-26T09:19:04;98513.72;;;7.94;89.77
36234;BME280;43467;50.890;5.982;2024-02-26T09:21:29;98516.34;;;7.94;89.73
36234;BME280;43467;50.890;5.982;2024-02-26T09:23:55;98520.28;;;8.02;90.11
36234;BME280;43467;50.890;5.982;2024-02-26T09:26:21;98518.59;;;8.01;89.23
36234;BME280;43467;50.890;5.982;2024-02-26T09:28:46;98526.78;;;8.10;89.19
36234;BME280;43467;50.890;5.982;2024-02-26T09:31:12;98528.44;;;8.11;89.05
36234;BME280;43467;50.890;5.982;2024-02-26T09:33:37;98534.97;;;8.06;88.69
36234;BME280;43467;50.890;5.982;2024-02-26T09:36:04;98536.84;;;8.04;89.03
36234;BME280;43467;50.890;5.982;2024-02-26T09:38:29;98535.31;;;8.00;89.05
36234;BME280;43467;50.890;5.982;2024-02-26T09:40:58;98549.16;;;8.03;88.90
36234;BME280;43467;50.890;5.982;2024-02-26T09:43:26;98547.00;;;7.95;89.18
36234;BME280;43467;50.890;5.982;2024-02-26T09:45:58;98548.06;;;7.93;89.47
36234;BME280;43467;50.890;5.982;2024-02-26T09:48:24;98547.19;;;7.92;89.54
36234;BME280;43467;50.890;5.982;2024-02-26T09:50:50;98548.69;;;7.97;89.89
36234;BME280;43467;50.890;5.982;2024-02-26T09:53:17;98554.91;;;7.95;90.06
36234;BME280;43467;50.890;5.982;2024-02-26T09:55:43;98557.16;;;7.87;89.87
36234;BME280;43467;50.890;5.982;2024-02-26T09:58:10;98558.13;;;7.86;90.15
36234;BME280;43467;50.890;5.982;2024-02-26T10:00:37;98558.41;;;7.82;89.87
36234;BME280;43467;50.890;5.982;2024-02-26T10:03:05;98562.06;;;7.79;90.26
36234;BME280;43467;50.890;5.982;2024-02-26T10:05:35;98566.88;;;7.73;90.74
36234;BME280;43467;50.890;5.982;2024-02-26T10:08:04;98567.59;;;7.75;91.05
36234;BME280;43467;50.890;5.982;2024-02-26T10:10:30;98572.78;;;7.76;90.68
36234;BME280;43467;50.890;5.982;2024-02-26T10:12:57;98571.75;;;7.79;90.55
36234;BME280;43467;50.890;5.982;2024-02-26T10:15:23;98580.50;;;7.79;90.26
36234;BME280;43467;50.890;5.982;2024-02-26T10:17:48;98585.19;;;7.74;90.45
36234;BME280;43467;50.890;5.982;2024-02-26T10:20:15;98586.63;;;7.80;90.99
36234;BME280;43467;50.890;5.982;2024-02-26T10:22:41;98586.16;;;7.73;90.43
36234;BME280;43467;50.890;5.982;2024-02-26T10:25:07;98599.91;;;7.78;90.79
36234;BME280;43467;50.890;5.982;2024-02-26T10:27:34;98604.13;;;7.81;90.46
36234;BME280;43467;50.890;5.982;2024-02-26T10:30:03;98597.16;;;7.80;89.84
36234;BME280;43467;50.890;5.982;2024-02-26T10:32:28;98606.84;;;7.79;89.20
36234;BME280;43467;50.890;5.982;2024-02-26T10:34:57;98608.91;;;7.74;89.05
36234;BME280;43467;50.890;5.982;2024-02-26T10:37:23;98611.19;;;7.80;89.53
36234;BME280;43467;50.890;5.982;2024-02-26T10:39:48;98613.47;;;7.86;89.11
36234;BME280;43467;50.890;5.982;2024-02-26T10:42:14;98622.97;;;7.89;88.31
36234;BME280;43467;50.890;5.982;2024-02-26T10:44:40;98622.69;;;7.93;88.28
36234;BME280;43467;50.890;5.982;2024-02-26T10:47:07;98625.22;;;7.95;88.59
36234;BME280;43467;50.890;5.982;2024-02-26T10:49:35;98626.91;;;7.96;88.71
36234;BME280;43467;50.890;5.982;2024-02-26T10:52:01;98628.16;;;7.90;88.57
36234;BME280;43467;50.890;5.982;2024-02-26T10:54:29;98634.81;;;7.96;88.56
36234;BME280;43467;50.890;5.982;2024-02-26T10:56:56;98641.88;;;7.95;88.87
36234;BME280;43467;50.890;5.982;2024-02-26T10:59:22;98637.19;;;8.01;88.85
36234;BME280;43467;50.890;5.982;2024-02-26T11:01:48;98643.22;;;8.03;88.97
36234;BME280;43467;50.890;5.982;2024-02-26T11:04:16;98652.44;;;8.10;89.12
36234;BME280;43467;50.890;5.982;2024-02-26T11:06:43;98650.94;;;8.06;87.15
36234;BME280;43467;50.890;5.982;2024-02-26T11:09:11;98658.19;;;8.02;88.13
36234;BME280;43467;50.890;5.982;2024-02-26T11:11:38;98657.72;;;8.10;88.05
36234;BME280;43467;50.890;5.982;2024-02-26T11:14:06;98665.22;;;8.16;88.19
36234;BME280;43467;50.890;5.982;2024-02-26T11:16:34;98668.53;;;8.19;88.62
36234;BME280;43467;50.890;5.982;2024-02-26T11:19:02;98672.22;;;8.17;88.30
36234;BME280;43467;50.890;5.982;2024-02-26T11:21:27;98667.03;;;8.15;88.30
36234;BME280;43467;50.890;5.982;2024-02-26T11:24:05;98674.84;;;8.17;89.15
36234;BME280;43467;50.890;5.982;2024-02-26T11:26:31;98667.41;;;8.23;89.54
36234;BME280;43467;50.890;5.982;2024-02-26T11:28:57;98674.56;;;8.21;89.47
36234;BME280;43467;50.890;5.982;2024-02-26T11:31:25;98683.22;;;8.23;88.94
36234;BME280;43467;50.890;5.982;2024-02-26T11:33:53;98678.91;;;8.22;89.46
36234;BME280;43467;50.890;5.982;2024-02-26T11:36:20;98680.59;;;8.23;88.20
36234;BME280;43467;50.890;5.982;2024-02-26T11:38:46;98685.19;;;8.20;87.94
36234;BME280;43467;50.890;5.982;2024-02-26T11:41:15;98684.25;;;8.21;88.02
36234;BME280;43467;50.890;5.982;2024-02-26T11:44:01;98679.53;;;8.12;87.69
36234;BME280;43467;50.890;5.982;2024-02-26T11:46:30;98691.31;;;8.20;87.56
36234;BME280;43467;50.890;5.982;2024-02-26T11:51:52;98699.16;;;8.22;87.42
36234;BME280;43467;50.890;5.982;2024-02-26T11:54:51;98693.88;;;8.22;88.11
36234;BME280;43467;50.890;5.982;2024-02-26T12:02:49;98698.09;;;8.24;89.47
36234;BME280;43467;50.890;5.982;2024-02-26T12:05:21;98697.53;;;8.19;88.96
36234;BME280;43467;50.890;5.982;2024-02-26T12:08:04;98696.41;;;8.09;88.99
36234;BME280;43467;50.890;5.982;2024-02-26T12:10:38;98706.28;;;8.20;89.43
36234;BME280;43467;50.890;5.982;2024-02-26T12:13:08;98712.34;;;8.22;89.63
36234;BME280;43467;50.890;5.982;2024-02-26T12:15:38;98719.13;;;8.26;90.06
36234;BME280;43467;50.890;5.982;2024-02-26T12:18:06;98701.41;;;8.14;90.37
36234;BME280;43467;50.890;5.982;2024-02-26T12:20:33;98706.28;;;8.20;90.22
36234;BME280;43467;50.890;5.982;2024-02-26T12:22:58;98721.75;;;8.26;90.46
36234;BME280;43467;50.890;5.982;2024-02-26T12:25:26;98725.13;;;8.28;90.41
36234;BME280;43467;50.890;5.982;2024-02-26T12:27:52;98733.16;;;8.26;90.22
36234;BME280;43467;50.890;5.982;2024-02-26T12:30:18;98734.34;;;8.21;89.61
36234;BME280;43467;50.890;5.982;2024-02-26T12:32:45;98730.78;;;8.22;89.39
36234;BME280;43467;50.890;5.982;2024-02-26T12:35:10;98733.03;;;8.14;89.84
36234;BME280;43467;50.890;5.982;2024-02-26T12:37:36;98747.22;;;8.11;89.84
36234;BME280;43467;50.890;5.982;2024-02-26T12:40:05;98749.19;;;8.08;90.89
36234;BME280;43467;50.890;5.982;2024-02-26T12:42:32;98751.69;;;8.11;91.89
36234;BME280;43467;50.890;5.982;2024-02-26T12:45:07;98769.34;;;8.09;91.48
36234;BME280;43467;50.890;5.982;2024-02-26T12:47:43;98774.63;;;8.09;91.75
36234;BME280;43467;50.890;5.982;2024-02-26T12:50:11;98775.41;;;8.11;91.45
36234;BME280;43467;50.890;5.982;2024-02-26T12:52:42;98779.72;;;8.12;92.15
36234;BME280;43467;50.890;5.982;2024-02-26T12:55:08;98781.59;;;8.10;91.93
36234;BME280;43467;50.890;5.982;2024-02-26T12:57:38;98786.38;;;8.03;91.48
36234;BME280;43467;50.890;5.982;2024-02-26T13:00:05;98794.00;;;8.08;91.77
36234;BME280;43467;50.890;5.982;2024-02-26T13:02:35;98803.22;;;8.01;91.88
36234;BME280;43467;50.890;5.982;2024-02-26T13:05:02;98800.78;;;7.98;92.18
36234;BME280;43467;50.890;5.982;2024-02-26T13:07:28;98801.78;;;7.95;92.42
36234;BME280;43467;50.890;5.982;2024-02-26T13:09:54;98810.47;;;7.97;92.53
36234;BME280;43467;50.890;5.982;2024-02-26T13:12:20;98816.00;;;7.92;91.96
36234;BME280;43467;50.890;5.982;2024-02-26T13:14:45;98821.84;;;7.98;92.24
36234;BME280;43467;50.890;5.982;2024-02-26T13:17:11;98835.97;;;7.97;91.75